createdAt,value
2019-01-16T00:02:39.268Z,95049.91
2019-01-16T00:05:28.447Z,95055.42
2019-01-16T00:08:30.485Z,95060.13
2019-01-16T00:11:20.572Z,95064.62
2019-01-16T00:14:25.509Z,95066.27
2019-01-16T00:17:15.787Z,95070.09
2019-01-16T00:20:21.126Z,95068.95
2019-01-16T00:23:10.826Z,95059.53
2019-01-16T00:26:03.892Z,95052.48
2019-01-16T00:28:52.793Z,95040.19
2019-01-16T00:31:48.782Z,95033.89
2019-01-16T00:34:37.796Z,95044.85
2019-01-16T00:37:26.434Z,95039.50
2019-01-16T00:40:15.447Z,95036.48
2019-01-16T00:43:05.384Z,95034.41
2019-01-16T00:45:54.221Z,95041.39
2019-01-16T00:48:37.838Z,95044.38
2019-01-16T00:51:33.994Z,95044.48
2019-01-16T00:54:22.772Z,95043.33
2019-01-16T00:57:15.050Z,95047.45
2019-01-16T01:00:08.936Z,95050.66
2019-01-16T01:03:05.075Z,95053.77
2019-01-16T01:05:58.039Z,95058.28
2019-01-16T01:08:46.755Z,95057.42
2019-01-16T01:11:52.138Z,95055.52
2019-01-16T01:14:35.744Z,95054.30
2019-01-16T01:17:14.375Z,95055.22
2019-01-16T01:20:22.359Z,95055.19
2019-01-16T01:23:15.099Z,95050.23
2019-01-16T01:26:08.281Z,95047.91
2019-01-16T01:28:57.364Z,95046.72
2019-01-16T01:32:06.288Z,95048.13
2019-01-16T01:35:02.302Z,95049.95
2019-01-16T01:37:51.333Z,95047.06
2019-01-16T01:40:59.611Z,95044.86
2019-01-16T01:43:40.379Z,95039.59
2019-01-16T01:46:28.832Z,95035.36
2019-01-16T01:49:28.108Z,95037.28
2019-01-16T01:52:21.039Z,95036.82
2019-01-16T01:55:08.121Z,95028.84
2019-01-16T01:57:56.954Z,95031.58
2019-01-16T02:00:50.926Z,95039.28
2019-01-16T02:03:38.026Z,95034.18
2019-01-16T02:06:23.048Z,95024.37
2019-01-16T02:09:11.011Z,95030.87
2019-01-16T02:12:00.409Z,95021.36
2019-01-16T02:14:49.037Z,95021.02
2019-01-16T02:17:45.184Z,95014.75
2019-01-16T02:20:38.790Z,95007.78
2019-01-16T02:23:41.331Z,95021.06
2019-01-16T02:26:30.223Z,95016.63
2019-01-16T02:29:35.124Z,95014.34
2019-01-16T02:32:35.455Z,95012.07
2019-01-16T02:35:24.004Z,95019.86
2019-01-16T02:38:12.571Z,95015.05
2019-01-16T02:41:05.681Z,95013.67
2019-01-16T02:44:14.026Z,95016.55
2019-01-16T02:47:16.192Z,95016.76
2019-01-16T02:49:57.270Z,95023.06
2019-01-16T02:52:48.412Z,95020.61
2019-01-16T02:55:50.853Z,95017.98
2019-01-16T02:58:47.150Z,95010.77
2019-01-16T03:01:40.559Z,95009.94
2019-01-16T03:04:36.962Z,95003.44
2019-01-16T03:07:15.328Z,95012.59
2019-01-16T03:10:04.083Z,95006.51
2019-01-16T03:13:03.263Z,95005.44
2019-01-16T03:15:48.125Z,95003.80
2019-01-16T03:18:50.812Z,95000.34
2019-01-16T03:21:43.835Z,94996.30
2019-01-16T03:24:43.228Z,94990.55
2019-01-16T03:27:33.396Z,94992.66
2019-01-16T03:30:23.340Z,94985.33
2019-01-16T03:33:16.123Z,94995.38
2019-01-16T03:36:09.103Z,94995.84
2019-01-16T03:39:14.521Z,94998.02
2019-01-16T03:42:16.801Z,95007.54
2019-01-16T03:45:03.477Z,95004.81
2019-01-16T03:47:50.310Z,95005.17
2019-01-16T03:50:49.516Z,95009.05
2019-01-16T03:53:43.635Z,95012.87
2019-01-16T03:56:43.958Z,95018.34
2019-01-16T03:59:27.376Z,95015.61
2019-01-16T04:02:17.538Z,95019.50
2019-01-16T04:05:19.424Z,95013.94
2019-01-16T04:08:09.444Z,95017.02
2019-01-16T04:11:00.684Z,95017.39
2019-01-16T04:13:53.921Z,95004.84
2019-01-16T04:16:50.023Z,95017.22
2019-01-16T04:19:38.838Z,95016.07
2019-01-16T04:22:37.648Z,95006.54
2019-01-16T04:25:39.539Z,95011.14
2019-01-16T04:28:24.770Z,95005.39
2019-01-16T04:31:27.046Z,95010.05
2019-01-16T04:34:20.184Z,95001.08
2019-01-16T04:37:08.857Z,94995.25
2019-01-16T04:40:11.112Z,94995.69
2019-01-16T04:42:54.748Z,94991.86
2019-01-16T04:45:36.061Z,94993.69
2019-01-16T04:48:29.401Z,95001.48
2019-01-16T04:51:20.392Z,94996.88
2019-01-16T04:54:28.637Z,94991.49
2019-01-16T04:57:20.146Z,95000.44
2019-01-16T05:00:28.236Z,94995.55
2019-01-16T05:03:20.867Z,94990.30
2019-01-16T05:06:09.200Z,94988.57
2019-01-16T05:09:02.062Z,94993.17
2019-01-16T05:12:11.712Z,94990.47
2019-01-16T05:15:02.907Z,94997.98
2019-01-16T05:17:52.837Z,94986.64
2019-01-16T05:20:41.661Z,94987.92
2019-01-16T05:23:26.164Z,94997.45
2019-01-16T05:26:18.920Z,94994.81
2019-01-16T05:29:07.637Z,95005.13
2019-01-16T05:32:00.698Z,95000.23
2019-01-16T05:34:55.564Z,95002.27
2019-01-16T05:37:57.483Z,95007.75
2019-01-16T05:40:45.937Z,95001.73
2019-01-16T05:43:38.787Z,95004.74
2019-01-16T05:46:31.906Z,95012.03
2019-01-16T05:49:24.897Z,95022.17
2019-01-16T05:52:15.106Z,95031.33
2019-01-16T05:55:04.476Z,95028.34
2019-01-16T05:57:57.955Z,95026.45
2019-01-16T06:00:51.579Z,95029.97
2019-01-16T06:03:50.581Z,95018.19
2019-01-16T06:06:49.674Z,95014.05
2019-01-16T06:09:39.949Z,95017.22
2019-01-16T06:12:33.344Z,95014.86
2019-01-16T06:15:35.722Z,95004.73
2019-01-16T06:18:40.787Z,95006.16
2019-01-16T06:21:30.913Z,95003.98
2019-01-16T06:24:39.318Z,95001.52
2019-01-16T06:27:29.502Z,95010.98
2019-01-16T06:30:08.799Z,95004.97
2019-01-16T06:33:13.902Z,95005.64
2019-01-16T06:36:04.188Z,95001.28
2019-01-16T06:38:52.865Z,95012.86
2019-01-16T06:41:42.996Z,95015.95
2019-01-16T06:44:33.209Z,95027.64
2019-01-16T06:47:19.587Z,95015.92
2019-01-16T06:50:16.495Z,95014.49
2019-01-16T06:53:05.047Z,95020.99
2019-01-16T06:55:55.293Z,95026.11
2019-01-16T06:58:45.154Z,95038.68
2019-01-16T07:01:37.918Z,95040.72
2019-01-16T07:04:27.063Z,95032.20
2019-01-16T07:07:18.541Z,95042.52
2019-01-16T07:10:17.452Z,95042.60
2019-01-16T07:13:04.631Z,95048.47
2019-01-16T07:15:47.803Z,95051.35
2019-01-16T07:18:44.376Z,95054.27
2019-01-16T07:21:52.648Z,95051.99
2019-01-16T07:24:41.324Z,95046.78
2019-01-16T07:27:34.560Z,95058.42
2019-01-16T07:30:32.554Z,95054.11
2019-01-16T07:33:34.724Z,95054.70
2019-01-16T07:36:34.431Z,95058.69
2019-01-16T07:39:30.999Z,95062.71
2019-01-16T07:42:21.203Z,95069.46
2019-01-16T07:45:16.083Z,95057.50
2019-01-16T07:48:12.610Z,95056.13
2019-01-16T07:51:08.709Z,95050.36
2019-01-16T07:53:54.180Z,95055.73
2019-01-16T07:56:42.798Z,95047.28
2019-01-16T07:59:45.341Z,95060.59
2019-01-16T08:02:46.389Z,95059.88
2019-01-16T08:05:39.942Z,95071.55
2019-01-16T08:08:33.148Z,95065.98
2019-01-16T08:11:22.251Z,95063.66
2019-01-16T08:14:15.186Z,95064.25
2019-01-16T08:17:11.759Z,95063.38
2019-01-16T08:20:00.409Z,95060.66
2019-01-16T08:22:43.446Z,95057.61
2019-01-16T08:25:32.525Z,95066.30
2019-01-16T08:28:27.178Z,95062.75
2019-01-16T08:31:19.674Z,95064.63
2019-01-16T08:34:16.963Z,95062.37
2019-01-16T08:37:07.097Z,95060.48
2019-01-16T08:39:57.325Z,95058.75
2019-01-16T08:42:46.046Z,95055.49
2019-01-16T08:45:35.091Z,95054.11
2019-01-16T08:48:31.250Z,95059.59
2019-01-16T08:51:20.338Z,95063.37
2019-01-16T08:54:09.058Z,95049.03
2019-01-16T08:57:07.734Z,95052.34
2019-01-16T08:59:56.937Z,95042.13
2019-01-16T09:02:44.935Z,95044.09
2019-01-16T09:05:35.726Z,95045.39
2019-01-16T09:08:31.260Z,95051.97
2019-01-16T09:11:27.646Z,95047.73
2019-01-16T09:14:16.985Z,95064.69
2019-01-16T09:17:10.168Z,95059.38
2019-01-16T09:20:06.806Z,95057.44
2019-01-16T09:22:46.915Z,95064.48
2019-01-16T09:25:35.835Z,95047.61
2019-01-16T09:28:34.841Z,95057.02
2019-01-16T09:31:30.899Z,95045.58
2019-01-16T09:34:27.430Z,95050.92
2019-01-16T09:37:17.731Z,95043.30
2019-01-16T09:40:06.864Z,95039.27
2019-01-16T09:42:55.784Z,95036.93
2019-01-16T09:45:54.933Z,95034.88
2019-01-16T09:49:03.587Z,95031.97
2019-01-16T09:52:02.579Z,95040.16
2019-01-16T09:54:58.697Z,95029.55
2019-01-16T09:57:47.186Z,95033.09
2019-01-16T10:00:42.769Z,95026.22
2019-01-16T10:03:33.228Z,95022.24
2019-01-16T10:06:30.751Z,95024.83
2019-01-16T10:09:23.722Z,95021.23
2019-01-16T10:12:13.904Z,95007.41
2019-01-16T10:15:04.294Z,95017.01
2019-01-16T10:17:52.893Z,95015.43
2019-01-16T10:20:46.042Z,95019.52
2019-01-16T10:23:34.431Z,95018.02
2019-01-16T10:26:23.386Z,95022.30
2019-01-16T10:29:19.858Z,95017.69
2019-01-16T10:32:22.280Z,95017.45
2019-01-16T10:35:12.419Z,95019.95
2019-01-16T10:38:02.621Z,94998.09
2019-01-16T10:41:05.160Z,95007.00
2019-01-16T10:44:04.466Z,95005.61
2019-01-16T10:46:54.758Z,95017.30
2019-01-16T10:49:46.055Z,95006.61
2019-01-16T10:52:36.211Z,94995.77
2019-01-16T10:55:29.143Z,94994.31
2019-01-16T10:58:18.274Z,94989.42
2019-01-16T11:01:14.019Z,94994.78
2019-01-16T11:04:16.485Z,94991.91
2019-01-16T11:07:03.396Z,94988.48
2019-01-16T11:10:00.090Z,94995.93
2019-01-16T11:12:46.430Z,94995.08
2019-01-16T11:15:35.265Z,94993.78
2019-01-16T11:18:29.074Z,94988.06
2019-01-16T11:21:28.316Z,94985.48
2019-01-16T11:24:20.539Z,94980.77
2019-01-16T11:27:26.205Z,94978.45
2019-01-16T11:30:30.096Z,94996.42
2019-01-16T11:33:20.211Z,94990.98
2019-01-16T11:36:19.513Z,94993.92
2019-01-16T11:39:08.553Z,94985.95
2019-01-16T11:41:49.232Z,94999.29
2019-01-16T11:44:42.191Z,94992.47
2019-01-16T11:47:38.461Z,94992.80
2019-01-16T11:50:19.201Z,95001.37
2019-01-16T11:53:07.856Z,95004.61
2019-01-16T11:55:46.868Z,95001.56
2019-01-16T11:58:36.800Z,94997.88
2019-01-16T12:01:36.328Z,94992.53
2019-01-16T12:04:23.532Z,95002.45
2019-01-16T12:07:29.082Z,94999.92
2019-01-16T12:10:17.834Z,94987.94
2019-01-16T12:13:11.538Z,94993.69
2019-01-16T12:16:05.059Z,95002.41
2019-01-16T12:18:49.054Z,94984.90
2019-01-16T12:21:37.793Z,94994.52
2019-01-16T12:24:23.079Z,94993.52
2019-01-16T12:27:12.122Z,94992.59
2019-01-16T12:30:02.177Z,95001.69
2019-01-16T12:33:04.013Z,95005.02
2019-01-16T12:35:59.692Z,95007.33
2019-01-16T12:38:49.828Z,95017.14
2019-01-16T12:41:35.226Z,95022.38
2019-01-16T12:44:28.472Z,95016.28
2019-01-16T12:47:18.534Z,95027.09
2019-01-16T12:50:07.670Z,95037.49
2019-01-16T12:52:53.956Z,95034.73
2019-01-16T12:55:38.563Z,95038.36
2019-01-16T12:58:47.209Z,95037.70
2019-01-16T13:01:42.187Z,95038.63
2019-01-16T13:04:31.183Z,95046.66
2019-01-16T13:07:24.407Z,95050.99
2019-01-16T13:10:13.164Z,95045.55
2019-01-16T13:13:15.477Z,95046.71
2019-01-16T13:16:04.353Z,95041.13
2019-01-16T13:19:09.751Z,95040.82
2019-01-16T13:22:02.868Z,95048.10
2019-01-16T13:24:51.619Z,95047.18
2019-01-16T13:27:53.692Z,95047.59
2019-01-16T13:30:43.776Z,95041.97
2019-01-16T13:33:29.806Z,95039.38
2019-01-16T13:36:20.016Z,95049.56
2019-01-16T13:39:01.555Z,95046.95
2019-01-16T13:41:52.180Z,95037.31
2019-01-16T13:44:42.472Z,95032.40
2019-01-16T13:47:50.936Z,95032.98
2019-01-16T13:50:32.830Z,95026.64
2019-01-16T13:53:21.109Z,95019.08
2019-01-16T13:56:16.428Z,95027.45
2019-01-16T13:58:58.003Z,95038.23
2019-01-16T14:01:46.694Z,95038.47
2019-01-16T14:04:36.886Z,95035.12
2019-01-16T14:07:33.070Z,95040.64
2019-01-16T14:10:42.210Z,95038.18
2019-01-16T14:13:38.346Z,95043.41
2019-01-16T14:16:40.366Z,95044.36
2019-01-16T14:19:36.769Z,95049.93
2019-01-16T14:22:36.236Z,95042.38
2019-01-16T14:25:45.454Z,95057.20
2019-01-16T14:28:51.758Z,95046.03
2019-01-16T14:31:45.393Z,95049.67
2019-01-16T14:34:41.791Z,95054.88
2019-01-16T14:37:30.515Z,95058.64
2019-01-16T14:40:29.516Z,95056.48
2019-01-16T14:43:19.647Z,95066.06
2019-01-16T14:46:15.929Z,95060.78
2019-01-16T14:48:57.371Z,95060.30
2019-01-16T14:51:45.947Z,95054.48
2019-01-16T14:54:36.118Z,95056.36
2019-01-16T14:57:29.732Z,95054.61
2019-01-16T15:00:32.601Z,95058.84
2019-01-16T15:03:22.274Z,95061.91
2019-01-16T15:06:18.201Z,95061.88
2019-01-16T15:09:17.252Z,95064.83
2019-01-16T15:12:07.525Z,95068.23
2019-01-16T15:15:00.673Z,95064.27
2019-01-16T15:17:53.599Z,95077.08
2019-01-16T15:20:42.463Z,95086.83
2019-01-16T15:23:21.115Z,95083.31
2019-01-16T15:26:14.503Z,95076.86
2019-01-16T15:29:16.573Z,95089.09
2019-01-16T15:32:06.086Z,95095.08
2019-01-16T15:34:55.200Z,95094.39
2019-01-16T15:38:00.840Z,95096.97
2019-01-16T15:41:00.207Z,95097.54
2019-01-16T15:43:50.488Z,95098.36
2019-01-16T15:46:31.318Z,95100.25
2019-01-16T15:49:21.457Z,95109.89
2019-01-16T15:52:13.104Z,95112.22
2019-01-16T15:55:00.703Z,95120.43
2019-01-16T15:57:59.564Z,95124.98
2019-01-16T16:00:42.782Z,95123.95
2019-01-16T16:03:51.174Z,95129.09
2019-01-16T16:06:50.080Z,95124.88
2019-01-16T16:09:42.034Z,95125.45
2019-01-16T16:12:44.229Z,95132.73
2019-01-16T16:15:33.389Z,95130.75
2019-01-16T16:18:26.458Z,95132.63
2019-01-16T16:21:16.713Z,95129.81
2019-01-16T16:24:11.311Z,95132.19
2019-01-16T16:26:56.372Z,95124.09
2019-01-16T16:30:01.657Z,95126.17
2019-01-16T16:33:02.133Z,95125.10
2019-01-16T16:35:50.621Z,95128.29
2019-01-16T16:38:46.886Z,95126.02
2019-01-16T16:41:32.741Z,95124.13
2019-01-16T16:44:15.783Z,95118.50
2019-01-16T16:47:19.203Z,95120.16
2019-01-16T16:50:12.225Z,95122.83
2019-01-16T16:53:01.245Z,95117.91
2019-01-16T16:55:58.956Z,95119.77
2019-01-16T16:58:54.407Z,95119.20
2019-01-16T17:01:46.940Z,95117.42
2019-01-16T17:04:37.104Z,95115.69
2019-01-16T17:07:42.461Z,95114.29
2019-01-16T17:10:32.775Z,95109.25
2019-01-16T17:13:34.789Z,95106.07
2019-01-16T17:16:29.669Z,95107.03
2019-01-16T17:19:19.887Z,95109.53
2019-01-16T17:22:08.556Z,95113.48
2019-01-16T17:25:02.706Z,95105.52
2019-01-16T17:28:05.228Z,95122.20
2019-01-16T17:30:49.260Z,95129.25
2019-01-16T17:33:38.187Z,95131.13
2019-01-16T17:36:34.621Z,95138.87
2019-01-16T17:39:36.348Z,95138.06
2019-01-16T17:42:28.101Z,95134.31
2019-01-16T17:45:24.284Z,95136.42
2019-01-16T17:48:17.081Z,95137.11
2019-01-16T17:51:12.480Z,95129.02
2019-01-16T17:54:01.609Z,95133.36
2019-01-16T17:57:04.117Z,95147.11
2019-01-16T18:00:09.237Z,95136.78
2019-01-16T18:03:17.732Z,95140.66
2019-01-16T18:06:07.840Z,95141.04
2019-01-16T18:08:57.290Z,95143.97
2019-01-16T18:11:45.959Z,95145.13
2019-01-16T18:14:35.039Z,95155.47
2019-01-16T18:17:25.573Z,95154.78
2019-01-16T18:20:15.810Z,95162.74
2019-01-16T18:23:05.872Z,95152.53
2019-01-16T18:25:54.527Z,95143.49
2019-01-16T18:28:49.050Z,95142.53
2019-01-16T18:31:39.296Z,95149.83
2019-01-16T18:34:29.241Z,95151.34
2019-01-16T18:37:31.164Z,95152.61
2019-01-16T18:40:21.553Z,95157.93
2019-01-16T18:43:19.751Z,95159.69
2019-01-16T18:46:08.770Z,95168.86
2019-01-16T18:49:50.402Z,95164.36
2019-01-16T18:53:18.753Z,95170.70
2019-01-16T18:56:31.200Z,95169.48
2019-01-16T18:59:55.168Z,95173.98
2019-01-16T19:02:59.978Z,95173.00
2019-01-16T19:06:29.683Z,95178.78
2019-01-16T19:09:52.907Z,95184.38
2019-01-16T19:13:22.893Z,95173.50
2019-01-16T19:16:14.235Z,95188.33
2019-01-16T19:19:46.635Z,95187.56
2019-01-16T19:22:35.644Z,95194.98
2019-01-16T19:25:28.828Z,95195.85
2019-01-16T19:28:09.150Z,95201.50
2019-01-16T19:30:58.118Z,95201.30
2019-01-16T19:33:54.003Z,95199.20
2019-01-16T19:36:35.464Z,95202.95
2019-01-16T19:39:39.684Z,95197.78
2019-01-16T19:42:29.865Z,95207.04
2019-01-16T19:45:19.871Z,95213.37
2019-01-16T19:49:08.705Z,95212.68
2019-01-16T19:52:07.816Z,95215.77
2019-01-16T19:55:53.499Z,95222.47
2019-01-16T19:59:33.684Z,95224.69
2019-01-16T20:02:24.623Z,95226.45
2019-01-16T20:05:05.836Z,95227.53
2019-01-16T20:07:58.895Z,95231.07
2019-01-16T20:10:54.753Z,95224.26
2019-01-16T20:13:37.389Z,95230.95
2019-01-16T20:16:25.992Z,95234.13
2019-01-16T20:19:18.965Z,95235.05
2019-01-16T20:22:07.255Z,95232.27
2019-01-16T20:24:59.902Z,95233.34
2019-01-16T20:27:48.780Z,95228.17
2019-01-16T20:30:48.503Z,95227.36
2019-01-16T20:33:45.015Z,95241.52
2019-01-16T20:36:27.947Z,95234.93
2019-01-16T20:39:24.347Z,95236.81
2019-01-16T20:42:22.074Z,95232.37
2019-01-16T20:45:21.201Z,95237.52
2019-01-16T20:48:09.543Z,95236.91
2019-01-16T20:51:08.555Z,95237.73
2019-01-16T20:54:04.626Z,95239.16
2019-01-16T20:56:50.047Z,95248.70
2019-01-16T20:59:39.319Z,95257.46
2019-01-16T21:02:47.349Z,95263.70
2019-01-16T21:05:36.010Z,95266.48
2019-01-16T21:08:30.079Z,95268.87
2019-01-16T21:11:32.153Z,95272.39
2019-01-16T21:14:27.963Z,95273.38
2019-01-16T21:17:14.396Z,95273.01
2019-01-16T21:19:59.611Z,95275.78
2019-01-16T21:22:58.400Z,95283.56
2019-01-16T21:25:37.099Z,95288.40
2019-01-16T21:28:33.086Z,95289.56
2019-01-16T21:31:28.972Z,95291.42
2019-01-16T21:34:17.497Z,95292.66
2019-01-16T21:37:05.989Z,95305.97
2019-01-16T21:40:02.391Z,95304.30
2019-01-16T21:43:01.295Z,95312.37
2019-01-16T21:45:49.279Z,95308.05
2019-01-16T21:48:46.612Z,95308.19
2019-01-16T21:51:36.330Z,95311.98
2019-01-16T21:54:32.209Z,95315.88
2019-01-16T21:57:20.562Z,95318.16
2019-01-16T22:00:13.358Z,95316.23
2019-01-16T22:03:07.736Z,95318.55
2019-01-16T22:06:15.850Z,95310.78
2019-01-16T22:09:05.807Z,95307.34
2019-01-16T22:11:58.599Z,95312.94
2019-01-16T22:14:41.055Z,95309.80
2019-01-16T22:17:31.168Z,95300.98
2019-01-16T22:20:28.046Z,95306.42
2019-01-16T22:23:07.903Z,95309.76
2019-01-16T22:26:00.687Z,95300.47
2019-01-16T22:28:49.227Z,95308.67
2019-01-16T22:31:37.951Z,95304.19
2019-01-16T22:34:26.744Z,95300.47
2019-01-16T22:37:19.685Z,95309.30
2019-01-16T22:40:18.961Z,95304.98
2019-01-16T22:43:16.246Z,95305.55
2019-01-16T22:46:05.002Z,95302.47
2019-01-16T22:48:50.164Z,95302.81
2019-01-16T22:51:39.061Z,95297.48
2019-01-16T22:54:44.191Z,95303.86
2019-01-16T22:57:42.274Z,95307.52
2019-01-16T23:00:41.004Z,95304.36
2019-01-16T23:03:38.641Z,95301.88
2019-01-16T23:06:33.354Z,95301.69
2019-01-16T23:09:35.338Z,95296.49
2019-01-16T23:12:25.555Z,95291.99
2019-01-16T23:15:11.319Z,95295.69
2019-01-16T23:18:13.289Z,95296.14
2019-01-16T23:21:01.823Z,95291.58
2019-01-16T23:23:54.924Z,95290.91
2019-01-16T23:26:43.624Z,95295.48
2019-01-16T23:29:34.066Z,95285.72
2019-01-16T23:32:30.096Z,95286.19
2019-01-16T23:35:18.233Z,95288.38
2019-01-16T23:38:08.174Z,95296.55
2019-01-16T23:40:56.543Z,95291.39
2019-01-16T23:43:44.938Z,95288.28
2019-01-16T23:46:33.617Z,95287.36
2019-01-16T23:49:23.523Z,95288.48
2019-01-16T23:52:31.656Z,95294.19
2019-01-16T23:55:19.756Z,95299.48
2019-01-16T23:58:18.325Z,95296.75
